This is the latest recevied weather packets stored in our database for station/object W8CEN. If no packets are shown the sender has not sent any weather packets the latest 10 day(s).
| Time | Temp. | Humidity | Pressure | Rain* | Wind** | Luminosity | Snow |
|---|---|---|---|---|---|---|---|
| 1777934071 | 25° C | 40% | 979.8 hPa | 0 mm | - | 67 W/m² | - |
| 1777933767 | 25° C | 42% | 979.7 hPa | 0 mm | - | 231 W/m² | - |
| 1777933465 | 25° C | 43% | 979.8 hPa | 0 mm | - | 249 W/m² | - |
| 1777933163 | 25° C | 43% | 980 hPa | 0 mm | - | 255 W/m² | - |
| 1777932859 | 25° C | 42% | 980 hPa | 0 mm | - | 277 W/m² | - |
| 1777932556 | 25° C | 42% | 980.1 hPa | 0 mm | - | 302 W/m² | - |
| 1777932253 | 24.44° C | 44% | 980.2 hPa | 0 mm | - | 167 W/m² | - |
| 1777931950 | 24.44° C | 44% | 980 hPa | 0 mm | - | 358 W/m² | - |
| 1777931647 | 25° C | 42% | 980.2 hPa | 0 mm | - | 128 W/m² | - |
| 1777931343 | 24.44° C | 43% | 980.2 hPa | 0 mm | - | 393 W/m² | - |
| 1777931040 | 24.44° C | 45% | 980.2 hPa | 0 mm | - | 365 W/m² | - |
| 1777930737 | 24.44° C | 45% | 980.2 hPa | 0 mm | - | 214 W/m² | - |
| 1777930432 | 24.44° C | 44% | 980.3 hPa | 0 mm | - | 127 W/m² | - |
| 1777930130 | 24.44° C | 44% | 980.3 hPa | 0 mm | - | 453 W/m² | - |
| 1777929826 | 24.44° C | 45% | 980.3 hPa | 0 mm | - | 455 W/m² | - |
| 1777929524 | 23.89° C | 47% | 980.4 hPa | 0 mm | - | 412 W/m² | - |
| 1777929220 | 22.78° C | 52% | 980.3 hPa | 0 mm | - | 651 W/m² | - |
| 1777928917 | 23.89° C | 50% | 980.2 hPa | 0 mm | - | 110 W/m² | - |
| 1777928614 | 24.44° C | 44% | 980.4 hPa | 0 mm | - | 67 W/m² | - |
| 1777928311 | 24.44° C | 44% | 980.5 hPa | 0 mm | - | 207 W/m² | - |
| 1777928009 | 24.44° C | 46% | 980.5 hPa | 0 mm | - | 310 W/m² | - |
| 1777927707 | 23.89° C | 46% | 980.5 hPa | 0 mm | - | 215 W/m² | - |
| 1777927405 | 23.89° C | 46% | 980.8 hPa | 0 mm | - | 155 W/m² | - |
| 1777927104 | 24.44° C | 46% | 980.6 hPa | 0 mm | - | 226 W/m² | - |
| 1777926801 | 24.44° C | 45% | 980.8 hPa | 0 mm | - | 186 W/m² | - |
* Rain latest hour (hover to see other rain measurements)
** Current wind speed in m/s (hover to see current wind gust speed)